sensor_id;sensor_type;location;lat;lon;timestamp;temperature;humidity
7307;DHT22;3694;48.732;9.248;2022-09-02T00:01:02;12.30;99.90
7307;DHT22;3694;48.732;9.248;2022-09-02T00:03:29;12.50;99.90
7307;DHT22;3694;48.732;9.248;2022-09-02T00:05:56;12.50;99.90
7307;DHT22;3694;48.732;9.248;2022-09-02T00:08:22;12.50;99.90
7307;DHT22;3694;48.732;9.248;2022-09-02T00:10:47;12.50;99.90
7307;DHT22;3694;48.732;9.248;2022-09-02T00:13:15;12.50;99.90
7307;DHT22;3694;48.732;9.248;2022-09-02T00:15:41;12.40;99.90
7307;DHT22;3694;48.732;9.248;2022-09-02T00:18:07;12.40;99.90
7307;DHT22;3694;48.732;9.248;2022-09-02T00:20:37;12.30;99.90
7307;DHT22;3694;48.732;9.248;2022-09-02T00:23:03;12.20;99.90
7307;DHT22;3694;48.732;9.248;2022-09-02T00:25:28;12.10;99.90
7307;DHT22;3694;48.732;9.248;2022-09-02T00:27:54;12.20;99.90
7307;DHT22;3694;48.732;9.248;2022-09-02T00:30:19;12.10;99.90
7307;DHT22;3694;48.732;9.248;2022-09-02T00:32:45;12.20;99.90
7307;DHT22;3694;48.732;9.248;2022-09-02T00:35:10;12.10;99.90
7307;DHT22;3694;48.732;9.248;2022-09-02T00:37:37;12.30;99.90
7307;DHT22;3694;48.732;9.248;2022-09-02T00:40:04;12.30;99.90
7307;DHT22;3694;48.732;9.248;2022-09-02T00:42:30;12.40;99.90
7307;DHT22;3694;48.732;9.248;2022-09-02T00:44:57;12.40;99.90
7307;DHT22;3694;48.732;9.248;2022-09-02T00:47:23;12.60;99.90
7307;DHT22;3694;48.732;9.248;2022-09-02T00:49:51;12.50;99.90
7307;DHT22;3694;48.732;9.248;2022-09-02T00:52:40;12.50;99.90
7307;DHT22;3694;48.732;9.248;2022-09-02T00:55:12;12.40;99.90
7307;DHT22;3694;48.732;9.248;2022-09-02T00:57:42;12.50;99.90
7307;DHT22;3694;48.732;9.248;2022-09-02T01:00:28;12.50;99.90
7307;DHT22;3694;48.732;9.248;2022-09-02T01:02:57;12.50;99.90
7307;DHT22;3694;48.732;9.248;2022-09-02T01:05:26;12.50;99.90
7307;DHT22;3694;48.732;9.248;2022-09-02T01:07:54;12.50;99.90
7307;DHT22;3694;48.732;9.248;2022-09-02T01:10:23;12.50;99.90
7307;DHT22;3694;48.732;9.248;2022-09-02T01:12:55;12.50;99.90
7307;DHT22;3694;48.732;9.248;2022-09-02T01:15:21;12.50;99.90
7307;DHT22;3694;48.732;9.248;2022-09-02T01:17:48;12.50;99.90
7307;DHT22;3694;48.732;9.248;2022-09-02T01:20:18;12.50;99.90
7307;DHT22;3694;48.732;9.248;2022-09-02T01:22:45;12.50;99.90
7307;DHT22;3694;48.732;9.248;2022-09-02T01:25:21;12.40;99.90
7307;DHT22;3694;48.732;9.248;2022-09-02T01:27:47;12.50;99.90
7307;DHT22;3694;48.732;9.248;2022-09-02T01:30:16;12.50;99.90
7307;DHT22;3694;48.732;9.248;2022-09-02T01:32:42;12.50;99.90
7307;DHT22;3694;48.732;9.248;2022-09-02T01:35:08;12.50;99.90
7307;DHT22;3694;48.732;9.248;2022-09-02T01:37:35;12.40;99.90
7307;DHT22;3694;48.732;9.248;2022-09-02T01:40:08;12.40;99.90
7307;DHT22;3694;48.732;9.248;2022-09-02T01:42:34;12.30;99.90
7307;DHT22;3694;48.732;9.248;2022-09-02T01:44:59;12.20;99.90
7307;DHT22;3694;48.732;9.248;2022-09-02T01:47:26;12.20;99.90
7307;DHT22;3694;48.732;9.248;2022-09-02T01:49:53;12.10;99.90
7307;DHT22;3694;48.732;9.248;2022-09-02T01:52:20;11.90;99.90
7307;DHT22;3694;48.732;9.248;2022-09-02T01:54:46;11.80;99.90
7307;DHT22;3694;48.732;9.248;2022-09-02T01:57:12;11.70;99.90
7307;DHT22;3694;48.732;9.248;2022-09-02T01:59:38;11.70;99.90
7307;DHT22;3694;48.732;9.248;2022-09-02T02:02:04;11.70;99.90
7307;DHT22;3694;48.732;9.248;2022-09-02T02:04:29;11.50;99.90
7307;DHT22;3694;48.732;9.248;2022-09-02T02:06:55;11.50;99.90
7307;DHT22;3694;48.732;9.248;2022-09-02T02:09:21;11.30;99.90
7307;DHT22;3694;48.732;9.248;2022-09-02T02:11:48;11.20;99.90
7307;DHT22;3694;48.732;9.248;2022-09-02T02:14:14;11.10;99.90
7307;DHT22;3694;48.732;9.248;2022-09-02T02:16:39;11.00;99.90
7307;DHT22;3694;48.732;9.248;2022-09-02T02:19:05;10.90;99.90
7307;DHT22;3694;48.732;9.248;2022-09-02T02:21:31;10.90;99.90
7307;DHT22;3694;48.732;9.248;2022-09-02T02:23:57;10.90;99.90
7307;DHT22;3694;48.732;9.248;2022-09-02T02:26:26;11.10;99.90
7307;DHT22;3694;48.732;9.248;2022-09-02T02:28:51;11.10;99.90
7307;DHT22;3694;48.732;9.248;2022-09-02T02:31:17;11.10;99.90
7307;DHT22;3694;48.732;9.248;2022-09-02T02:33:43;11.10;99.90
7307;DHT22;3694;48.732;9.248;2022-09-02T02:36:08;11.10;99.90
7307;DHT22;3694;48.732;9.248;2022-09-02T02:38:36;11.20;99.90
7307;DHT22;3694;48.732;9.248;2022-09-02T02:41:03;11.10;99.90
7307;DHT22;3694;48.732;9.248;2022-09-02T02:43:31;11.30;99.90
7307;DHT22;3694;48.732;9.248;2022-09-02T02:45:57;11.20;99.90
7307;DHT22;3694;48.732;9.248;2022-09-02T02:48:22;11.10;99.90
7307;DHT22;3694;48.732;9.248;2022-09-02T02:50:48;10.90;99.90
7307;DHT22;3694;48.732;9.248;2022-09-02T02:53:14;10.90;99.90
7307;DHT22;3694;48.732;9.248;2022-09-02T02:55:42;10.90;99.90
7307;DHT22;3694;48.732;9.248;2022-09-02T02:58:07;10.80;99.90
7307;DHT22;3694;48.732;9.248;2022-09-02T03:00:33;10.80;99.90
7307;DHT22;3694;48.732;9.248;2022-09-02T03:03:07;10.70;99.90
7307;DHT22;3694;48.732;9.248;2022-09-02T03:05:35;10.70;99.90
7307;DHT22;3694;48.732;9.248;2022-09-02T03:08:06;10.70;99.90
7307;DHT22;3694;48.732;9.248;2022-09-02T03:10:33;10.90;99.90
7307;DHT22;3694;48.732;9.248;2022-09-02T03:12:59;11.00;99.90
7307;DHT22;3694;48.732;9.248;2022-09-02T03:15:25;11.00;99.90
7307;DHT22;3694;48.732;9.248;2022-09-02T03:17:53;11.10;99.90
7307;DHT22;3694;48.732;9.248;2022-09-02T03:20:19;11.30;99.90
7307;DHT22;3694;48.732;9.248;2022-09-02T03:22:46;11.40;99.90
7307;DHT22;3694;48.732;9.248;2022-09-02T03:25:14;11.50;99.90
7307;DHT22;3694;48.732;9.248;2022-09-02T03:27:40;11.70;99.90
7307;DHT22;3694;48.732;9.248;2022-09-02T03:30:10;11.60;99.90
7307;DHT22;3694;48.732;9.248;2022-09-02T03:32:36;11.60;99.90
7307;DHT22;3694;48.732;9.248;2022-09-02T03:35:04;11.60;99.90
7307;DHT22;3694;48.732;9.248;2022-09-02T03:37:32;11.60;99.90
7307;DHT22;3694;48.732;9.248;2022-09-02T03:39:57;11.70;99.90
7307;DHT22;3694;48.732;9.248;2022-09-02T03:42:23;11.80;99.90
7307;DHT22;3694;48.732;9.248;2022-09-02T03:44:48;11.80;99.90
7307;DHT22;3694;48.732;9.248;2022-09-02T03:47:14;11.80;99.90
7307;DHT22;3694;48.732;9.248;2022-09-02T03:49:42;11.70;99.90
7307;DHT22;3694;48.732;9.248;2022-09-02T03:52:07;11.50;99.90
7307;DHT22;3694;48.732;9.248;2022-09-02T03:54:33;11.40;99.90
7307;DHT22;3694;48.732;9.248;2022-09-02T03:56:58;11.20;99.90
7307;DHT22;3694;48.732;9.248;2022-09-02T03:59:24;11.20;99.90
7307;DHT22;3694;48.732;9.248;2022-09-02T04:01:50;11.10;99.90
7307;DHT22;3694;48.732;9.248;2022-09-02T04:04:17;11.20;99.90
7307;DHT22;3694;48.732;9.248;2022-09-02T04:06:43;11.30;99.90
7307;DHT22;3694;48.732;9.248;2022-09-02T04:09:08;11.30;99.90
7307;DHT22;3694;48.732;9.248;2022-09-02T04:11:34;11.40;99.90
7307;DHT22;3694;48.732;9.248;2022-09-02T04:14:01;11.40;99.90
7307;DHT22;3694;48.732;9.248;2022-09-02T04:16:27;11.40;99.90
7307;DHT22;3694;48.732;9.248;2022-09-02T04:18:55;11.30;99.90
7307;DHT22;3694;48.732;9.248;2022-09-02T04:21:22;11.30;99.90
7307;DHT22;3694;48.732;9.248;2022-09-02T04:23:48;11.20;99.90
7307;DHT22;3694;48.732;9.248;2022-09-02T04:26:15;11.10;99.90
7307;DHT22;3694;48.732;9.248;2022-09-02T04:28:42;11.00;99.90
7307;DHT22;3694;48.732;9.248;2022-09-02T04:31:10;11.00;99.90
7307;DHT22;3694;48.732;9.248;2022-09-02T04:33:35;11.00;99.90
7307;DHT22;3694;48.732;9.248;2022-09-02T04:36:06;11.10;99.90
7307;DHT22;3694;48.732;9.248;2022-09-02T04:38:32;11.10;99.90
7307;DHT22;3694;48.732;9.248;2022-09-02T04:40:58;10.90;99.90
7307;DHT22;3694;48.732;9.248;2022-09-02T04:43:24;10.90;99.90
7307;DHT22;3694;48.732;9.248;2022-09-02T04:45:50;10.80;99.90
7307;DHT22;3694;48.732;9.248;2022-09-02T04:48:16;10.90;99.90
7307;DHT22;3694;48.732;9.248;2022-09-02T04:50:43;10.80;99.90
7307;DHT22;3694;48.732;9.248;2022-09-02T04:53:10;10.90;99.90
7307;DHT22;3694;48.732;9.248;2022-09-02T04:55:38;10.90;99.90
7307;DHT22;3694;48.732;9.248;2022-09-02T04:58:05;10.80;99.90
7307;DHT22;3694;48.732;9.248;2022-09-02T05:00:30;11.00;99.90
7307;DHT22;3694;48.732;9.248;2022-09-02T05:02:56;11.10;99.90
7307;DHT22;3694;48.732;9.248;2022-09-02T05:05:22;11.10;99.90
7307;DHT22;3694;48.732;9.248;2022-09-02T05:07:47;11.20;99.90
7307;DHT22;3694;48.732;9.248;2022-09-02T05:10:13;11.20;99.90
7307;DHT22;3694;48.732;9.248;2022-09-02T05:12:40;11.40;99.90
7307;DHT22;3694;48.732;9.248;2022-09-02T05:15:07;11.40;99.90
7307;DHT22;3694;48.732;9.248;2022-09-02T05:17:33;11.60;99.90
7307;DHT22;3694;48.732;9.248;2022-09-02T05:20:00;11.60;99.90
7307;DHT22;3694;48.732;9.248;2022-09-02T05:22:26;11.60;99.90
7307;DHT22;3694;48.732;9.248;2022-09-02T05:24:54;11.60;99.90
7307;DHT22;3694;48.732;9.248;2022-09-02T05:27:20;11.60;99.90
7307;DHT22;3694;48.732;9.248;2022-09-02T05:29:45;11.50;99.90
7307;DHT22;3694;48.732;9.248;2022-09-02T05:32:11;11.50;99.90
7307;DHT22;3694;48.732;9.248;2022-09-02T05:34:37;11.60;99.90
7307;DHT22;3694;48.732;9.248;2022-09-02T05:37:03;11.60;99.90
7307;DHT22;3694;48.732;9.248;2022-09-02T05:39:29;11.70;99.90
7307;DHT22;3694;48.732;9.248;2022-09-02T05:41:55;11.80;99.90
7307;DHT22;3694;48.732;9.248;2022-09-02T05:44:20;11.90;99.90
7307;DHT22;3694;48.732;9.248;2022-09-02T05:46:46;12.10;99.90
7307;DHT22;3694;48.732;9.248;2022-09-02T05:49:11;12.20;99.90
7307;DHT22;3694;48.732;9.248;2022-09-02T05:51:47;12.30;99.90
7307;DHT22;3694;48.732;9.248;2022-09-02T05:54:17;12.50;99.90
7307;DHT22;3694;48.732;9.248;2022-09-02T05:56:45;12.70;99.90
7307;DHT22;3694;48.732;9.248;2022-09-02T05:59:11;12.80;99.90
7307;DHT22;3694;48.732;9.248;2022-09-02T06:01:36;12.80;99.90
7307;DHT22;3694;48.732;9.248;2022-09-02T06:04:06;13.10;99.90
7307;DHT22;3694;48.732;9.248;2022-09-02T06:06:32;13.20;99.90
7307;DHT22;3694;48.732;9.248;2022-09-02T06:08:59;13.40;99.90
7307;DHT22;3694;48.732;9.248;2022-09-02T06:11:26;13.70;99.90
7307;DHT22;3694;48.732;9.248;2022-09-02T06:13:53;14.60;99.90
7307;DHT22;3694;48.732;9.248;2022-09-02T06:16:20;15.50;99.10
7307;DHT22;3694;48.732;9.248;2022-09-02T06:18:47;16.70;96.80
7307;DHT22;3694;48.732;9.248;2022-09-02T06:21:14;17.90;93.70
7307;DHT22;3694;48.732;9.248;2022-09-02T06:23:40;19.00;90.80
7307;DHT22;3694;48.732;9.248;2022-09-02T06:26:07;19.80;89.00
7307;DHT22;3694;48.732;9.248;2022-09-02T06:28:34;20.40;83.50
7307;DHT22;3694;48.732;9.248;2022-09-02T06:31:10;20.60;81.40
7307;DHT22;3694;48.732;9.248;2022-09-02T06:33:37;20.90;80.30
7307;DHT22;3694;48.732;9.248;2022-09-02T06:36:08;21.10;78.80
7307;DHT22;3694;48.732;9.248;2022-09-02T06:38:37;21.20;76.80
7307;DHT22;3694;48.732;9.248;2022-09-02T06:41:03;20.70;76.90
7307;DHT22;3694;48.732;9.248;2022-09-02T06:43:28;21.40;76.80
7307;DHT22;3694;48.732;9.248;2022-09-02T06:45:55;21.60;76.60
7307;DHT22;3694;48.732;9.248;2022-09-02T06:48:20;21.80;74.70
7307;DHT22;3694;48.732;9.248;2022-09-02T06:50:47;22.00;74.40
7307;DHT22;3694;48.732;9.248;2022-09-02T06:53:13;22.20;73.00
7307;DHT22;3694;48.732;9.248;2022-09-02T06:55:41;22.50;74.20
7307;DHT22;3694;48.732;9.248;2022-09-02T06:58:07;22.60;73.30
7307;DHT22;3694;48.732;9.248;2022-09-02T07:00:33;22.70;71.80
7307;DHT22;3694;48.732;9.248;2022-09-02T07:03:00;22.00;71.60
7307;DHT22;3694;48.732;9.248;2022-09-02T07:05:45;22.60;74.30
7307;DHT22;3694;48.732;9.248;2022-09-02T07:08:10;22.50;71.00
7307;DHT22;3694;48.732;9.248;2022-09-02T07:10:40;22.60;73.30
7307;DHT22;3694;48.732;9.248;2022-09-02T07:13:07;22.40;71.60
7307;DHT22;3694;48.732;9.248;2022-09-02T07:15:33;22.20;72.30
7307;DHT22;3694;48.732;9.248;2022-09-02T07:17:59;22.40;71.90
7307;DHT22;3694;48.732;9.248;2022-09-02T07:20:25;22.20;72.70
7307;DHT22;3694;48.732;9.248;2022-09-02T07:22:51;22.40;71.20
7307;DHT22;3694;48.732;9.248;2022-09-02T07:25:17;21.90;69.80
7307;DHT22;3694;48.732;9.248;2022-09-02T07:27:43;22.00;72.00
7307;DHT22;3694;48.732;9.248;2022-09-02T07:30:11;21.90;73.10
7307;DHT22;3694;48.732;9.248;2022-09-02T07:32:37;22.10;72.20
7307;DHT22;3694;48.732;9.248;2022-09-02T07:35:04;22.20;71.10
7307;DHT22;3694;48.732;9.248;2022-09-02T07:37:31;22.20;71.40
7307;DHT22;3694;48.732;9.248;2022-09-02T07:39:59;22.00;69.90
7307;DHT22;3694;48.732;9.248;2022-09-02T07:42:25;21.70;71.10
7307;DHT22;3694;48.732;9.248;2022-09-02T07:44:50;21.90;71.40
7307;DHT22;3694;48.732;9.248;2022-09-02T07:47:16;22.40;72.50
7307;DHT22;3694;48.732;9.248;2022-09-02T07:49:41;22.20;70.80
7307;DHT22;3694;48.732;9.248;2022-09-02T07:52:07;22.10;70.70
7307;DHT22;3694;48.732;9.248;2022-09-02T07:54:32;21.70;70.20
7307;DHT22;3694;48.732;9.248;2022-09-02T07:56:58;21.60;71.10
7307;DHT22;3694;48.732;9.248;2022-09-02T07:59:23;21.80;70.60
7307;DHT22;3694;48.732;9.248;2022-09-02T08:01:50;22.30;71.80
7307;DHT22;3694;48.732;9.248;2022-09-02T08:04:18;21.80;70.10
7307;DHT22;3694;48.732;9.248;2022-09-02T08:06:45;21.60;69.80
7307;DHT22;3694;48.732;9.248;2022-09-02T08:09:11;21.50;69.60
7307;DHT22;3694;48.732;9.248;2022-09-02T08:11:39;21.50;71.30
7307;DHT22;3694;48.732;9.248;2022-09-02T08:14:07;21.40;70.50
7307;DHT22;3694;48.732;9.248;2022-09-02T08:16:33;21.60;70.60
7307;DHT22;3694;48.732;9.248;2022-09-02T08:18:59;21.50;69.60
7307;DHT22;3694;48.732;9.248;2022-09-02T08:21:25;21.40;69.60
7307;DHT22;3694;48.732;9.248;2022-09-02T08:23:50;21.20;70.90
7307;DHT22;3694;48.732;9.248;2022-09-02T08:26:16;21.40;70.40
7307;DHT22;3694;48.732;9.248;2022-09-02T08:28:43;21.70;71.80
7307;DHT22;3694;48.732;9.248;2022-09-02T08:31:08;21.70;69.00
7307;DHT22;3694;48.732;9.248;2022-09-02T08:33:35;21.50;69.30
7307;DHT22;3694;48.732;9.248;2022-09-02T08:36:02;21.80;71.90
7307;DHT22;3694;48.732;9.248;2022-09-02T08:38:28;21.90;69.20
7307;DHT22;3694;48.732;9.248;2022-09-02T08:40:54;22.00;70.10
7307;DHT22;3694;48.732;9.248;2022-09-02T08:43:35;22.30;68.30
7307;DHT22;3694;48.732;9.248;2022-09-02T08:46:05;22.40;68.40
7307;DHT22;3694;48.732;9.248;2022-09-02T08:51:07;22.10;67.10
7307;DHT22;3694;48.732;9.248;2022-09-02T08:54:05;22.20;66.20
7307;DHT22;3694;48.732;9.248;2022-09-02T08:56:32;22.40;68.30
7307;DHT22;3694;48.732;9.248;2022-09-02T08:58:57;22.40;66.20
7307;DHT22;3694;48.732;9.248;2022-09-02T09:01:58;22.40;67.50
7307;DHT22;3694;48.732;9.248;2022-09-02T09:07:34;22.80;67.90
7307;DHT22;3694;48.732;9.248;2022-09-02T09:17:45;22.30;66.10
7307;DHT22;3694;48.732;9.248;2022-09-02T09:20:19;22.60;67.40
7307;DHT22;3694;48.732;9.248;2022-09-02T09:22:48;22.90;64.80
7307;DHT22;3694;48.732;9.248;2022-09-02T09:25:16;22.60;67.10
7307;DHT22;3694;48.732;9.248;2022-09-02T09:27:42;22.50;65.80
7307;DHT22;3694;48.732;9.248;2022-09-02T09:30:11;22.50;65.00
7307;DHT22;3694;48.732;9.248;2022-09-02T09:32:48;22.80;67.20
7307;DHT22;3694;48.732;9.248;2022-09-02T09:35:17;23.00;64.60
7307;DHT22;3694;48.732;9.248;2022-09-02T09:37:45;23.00;64.10
7307;DHT22;3694;48.732;9.248;2022-09-02T09:45:40;22.80;63.30
7307;DHT22;3694;48.732;9.248;2022-09-02T09:50:45;22.60;64.60
7307;DHT22;3694;48.732;9.248;2022-09-02T09:55:55;23.00;63.30
7307;DHT22;3694;48.732;9.248;2022-09-02T09:58:23;23.10;64.20
7307;DHT22;3694;48.732;9.248;2022-09-02T10:00:51;23.30;63.40
7307;DHT22;3694;48.732;9.248;2022-09-02T10:03:24;23.40;62.20
7307;DHT22;3694;48.732;9.248;2022-09-02T10:05:56;23.20;63.50
7307;DHT22;3694;48.732;9.248;2022-09-02T10:08:24;23.00;60.00
7307;DHT22;3694;48.732;9.248;2022-09-02T10:11:05;23.00;61.90
7307;DHT22;3694;48.732;9.248;2022-09-02T10:13:34;22.90;61.40
7307;DHT22;3694;48.732;9.248;2022-09-02T10:16:20;23.00;59.10
7307;DHT22;3694;48.732;9.248;2022-09-02T10:19:00;22.80;60.90
7307;DHT22;3694;48.732;9.248;2022-09-02T10:24:45;23.20;63.00
7307;DHT22;3694;48.732;9.248;2022-09-02T10:27:18;23.00;59.10
7307;DHT22;3694;48.732;9.248;2022-09-02T10:29:56;23.10;59.50
7307;DHT22;3694;48.732;9.248;2022-09-02T10:32:33;23.30;59.30
7307;DHT22;3694;48.732;9.248;2022-09-02T10:35:20;23.10;61.20
7307;DHT22;3694;48.732;9.248;2022-09-02T10:41:04;23.20;61.90
7307;DHT22;3694;48.732;9.248;2022-09-02T10:46:16;23.30;59.30
7307;DHT22;3694;48.732;9.248;2022-09-02T10:54:28;22.80;59.10
7307;DHT22;3694;48.732;9.248;2022-09-02T10:57:02;22.80;62.80
7307;DHT22;3694;48.732;9.248;2022-09-02T11:02:46;23.00;59.70
7307;DHT22;3694;48.732;9.248;2022-09-02T11:05:26;23.20;60.20
7307;DHT22;3694;48.732;9.248;2022-09-02T11:08:17;23.40;59.40
7307;DHT22;3694;48.732;9.248;2022-09-02T11:11:24;23.50;57.00
7307;DHT22;3694;48.732;9.248;2022-09-02T11:16:19;23.60;59.80
7307;DHT22;3694;48.732;9.248;2022-09-02T11:20:00;23.40;60.20
7307;DHT22;3694;48.732;9.248;2022-09-02T11:22:23;23.00;58.10
7307;DHT22;3694;48.732;9.248;2022-09-02T11:24:56;23.00;57.20
7307;DHT22;3694;48.732;9.248;2022-09-02T11:27:41;23.30;59.20
7307;DHT22;3694;48.732;9.248;2022-09-02T11:30:16;23.60;58.60
7307;DHT22;3694;48.732;9.248;2022-09-02T11:32:55;23.50;58.70
7307;DHT22;3694;48.732;9.248;2022-09-02T11:35:26;23.40;57.10
7307;DHT22;3694;48.732;9.248;2022-09-02T11:38:01;23.20;58.80
7307;DHT22;3694;48.732;9.248;2022-09-02T11:40:44;23.20;57.90
7307;DHT22;3694;48.732;9.248;2022-09-02T11:48:58;23.70;58.30
7307;DHT22;3694;48.732;9.248;2022-09-02T11:51:37;23.70;56.50
7307;DHT22;3694;48.732;9.248;2022-09-02T11:54:06;23.70;58.70
7307;DHT22;3694;48.732;9.248;2022-09-02T11:56:37;23.90;57.60
7307;DHT22;3694;48.732;9.248;2022-09-02T11:59:05;23.70;55.60
7307;DHT22;3694;48.732;9.248;2022-09-02T12:01:57;24.20;59.60
7307;DHT22;3694;48.732;9.248;2022-09-02T12:04:23;24.40;57.20
7307;DHT22;3694;48.732;9.248;2022-09-02T12:07:21;24.40;55.30
7307;DHT22;3694;48.732;9.248;2022-09-02T12:09:52;24.50;56.80
7307;DHT22;3694;48.732;9.248;2022-09-02T12:15:16;24.40;59.80
7307;DHT22;3694;48.732;9.248;2022-09-02T12:18:04;24.50;57.30
7307;DHT22;3694;48.732;9.248;2022-09-02T12:23:07;24.40;57.40
7307;DHT22;3694;48.732;9.248;2022-09-02T12:28:25;24.40;56.30
7307;DHT22;3694;48.732;9.248;2022-09-02T12:33:46;24.20;58.70
7307;DHT22;3694;48.732;9.248;2022-09-02T12:45:04;24.50;58.00
7307;DHT22;3694;48.732;9.248;2022-09-02T12:50:34;24.20;56.80
7307;DHT22;3694;48.732;9.248;2022-09-02T12:53:41;24.50;58.30
7307;DHT22;3694;48.732;9.248;2022-09-02T12:56:22;24.40;55.00
7307;DHT22;3694;48.732;9.248;2022-09-02T12:58:51;24.40;55.10
7307;DHT22;3694;48.732;9.248;2022-09-02T13:04:37;24.60;56.80
7307;DHT22;3694;48.732;9.248;2022-09-02T13:07:26;24.60;57.40
7307;DHT22;3694;48.732;9.248;2022-09-02T13:12:58;24.90;59.70
7307;DHT22;3694;48.732;9.248;2022-09-02T13:18:16;25.00;55.70
7307;DHT22;3694;48.732;9.248;2022-09-02T13:21:03;25.10;57.70
7307;DHT22;3694;48.732;9.248;2022-09-02T13:32:20;24.70;58.40
7307;DHT22;3694;48.732;9.248;2022-09-02T13:34:49;24.60;56.70
7307;DHT22;3694;48.732;9.248;2022-09-02T13:37:34;24.60;56.90
7307;DHT22;3694;48.732;9.248;2022-09-02T13:40:06;24.50;56.20
7307;DHT22;3694;48.732;9.248;2022-09-02T13:42:32;24.50;59.10
7307;DHT22;3694;48.732;9.248;2022-09-02T13:45:16;24.60;57.10
7307;DHT22;3694;48.732;9.248;2022-09-02T13:47:43;24.60;57.60
7307;DHT22;3694;48.732;9.248;2022-09-02T13:50:11;24.80;56.90
7307;DHT22;3694;48.732;9.248;2022-09-02T13:52:39;24.50;56.50
7307;DHT22;3694;48.732;9.248;2022-09-02T13:55:07;24.40;56.60
7307;DHT22;3694;48.732;9.248;2022-09-02T13:57:35;24.20;57.90
7307;DHT22;3694;48.732;9.248;2022-09-02T14:00:02;24.20;58.20
7307;DHT22;3694;48.732;9.248;2022-09-02T14:02:33;24.30;56.80
7307;DHT22;3694;48.732;9.248;2022-09-02T14:05:06;24.50;58.40
7307;DHT22;3694;48.732;9.248;2022-09-02T14:07:39;24.40;56.40
7307;DHT22;3694;48.732;9.248;2022-09-02T14:10:08;24.30;56.60
7307;DHT22;3694;48.732;9.248;2022-09-02T14:12:36;24.30;56.10
7307;DHT22;3694;48.732;9.248;2022-09-02T14:15:03;24.20;56.60
7307;DHT22;3694;48.732;9.248;2022-09-02T14:17:29;24.20;57.50
7307;DHT22;3694;48.732;9.248;2022-09-02T14:22:39;24.30;56.30
7307;DHT22;3694;48.732;9.248;2022-09-02T14:25:13;24.20;56.90
7307;DHT22;3694;48.732;9.248;2022-09-02T14:27:46;24.20;58.80
7307;DHT22;3694;48.732;9.248;2022-09-02T14:30:33;24.00;57.00
7307;DHT22;3694;48.732;9.248;2022-09-02T14:36:00;23.70;56.70
7307;DHT22;3694;48.732;9.248;2022-09-02T14:38:32;23.80;58.10
7307;DHT22;3694;48.732;9.248;2022-09-02T14:41:20;23.90;57.20
7307;DHT22;3694;48.732;9.248;2022-09-02T14:46:35;24.00;56.20
7307;DHT22;3694;48.732;9.248;2022-09-02T14:49:04;24.00;57.40
7307;DHT22;3694;48.732;9.248;2022-09-02T14:51:33;23.80;55.50
7307;DHT22;3694;48.732;9.248;2022-09-02T14:54:00;23.70;57.70
7307;DHT22;3694;48.732;9.248;2022-09-02T14:56:49;23.50;57.40
7307;DHT22;3694;48.732;9.248;2022-09-02T14:59:15;23.50;56.80
7307;DHT22;3694;48.732;9.248;2022-09-02T15:01:42;23.60;56.80
7307;DHT22;3694;48.732;9.248;2022-09-02T15:04:11;23.60;56.80
7307;DHT22;3694;48.732;9.248;2022-09-02T15:06:37;23.60;55.50
7307;DHT22;3694;48.732;9.248;2022-09-02T15:09:03;23.60;56.00
7307;DHT22;3694;48.732;9.248;2022-09-02T15:11:28;23.40;55.10
7307;DHT22;3694;48.732;9.248;2022-09-02T15:13:54;23.30;56.00
7307;DHT22;3694;48.732;9.248;2022-09-02T15:16:19;23.20;56.30
7307;DHT22;3694;48.732;9.248;2022-09-02T15:18:45;23.20;57.20
7307;DHT22;3694;48.732;9.248;2022-09-02T15:21:10;23.10;55.90
7307;DHT22;3694;48.732;9.248;2022-09-02T15:23:36;22.90;56.00
7307;DHT22;3694;48.732;9.248;2022-09-02T15:26:05;22.80;56.00
7307;DHT22;3694;48.732;9.248;2022-09-02T15:28:31;22.70;56.40
7307;DHT22;3694;48.732;9.248;2022-09-02T15:30:57;22.60;58.40
7307;DHT22;3694;48.732;9.248;2022-09-02T15:33:23;22.50;56.80
7307;DHT22;3694;48.732;9.248;2022-09-02T15:35:49;22.40;57.70
7307;DHT22;3694;48.732;9.248;2022-09-02T15:38:15;22.40;57.80
7307;DHT22;3694;48.732;9.248;2022-09-02T15:40:41;22.20;55.90
7307;DHT22;3694;48.732;9.248;2022-09-02T15:43:07;22.30;56.70
7307;DHT22;3694;48.732;9.248;2022-09-02T15:45:33;22.10;56.80
7307;DHT22;3694;48.732;9.248;2022-09-02T15:47:59;22.00;56.40
7307;DHT22;3694;48.732;9.248;2022-09-02T15:50:25;21.90;57.10
7307;DHT22;3694;48.732;9.248;2022-09-02T15:52:55;21.70;56.60
7307;DHT22;3694;48.732;9.248;2022-09-02T15:55:21;21.60;56.50
7307;DHT22;3694;48.732;9.248;2022-09-02T15:57:46;21.50;56.60
7307;DHT22;3694;48.732;9.248;2022-09-02T16:00:12;21.30;58.30
7307;DHT22;3694;48.732;9.248;2022-09-02T16:02:38;21.20;58.80
7307;DHT22;3694;48.732;9.248;2022-09-02T16:05:03;21.10;58.10
7307;DHT22;3694;48.732;9.248;2022-09-02T16:07:29;21.00;58.60
7307;DHT22;3694;48.732;9.248;2022-09-02T16:09:55;20.90;57.80
7307;DHT22;3694;48.732;9.248;2022-09-02T16:12:20;20.80;58.80
7307;DHT22;3694;48.732;9.248;2022-09-02T16:14:46;20.80;58.70
7307;DHT22;3694;48.732;9.248;2022-09-02T16:17:15;20.80;59.10
7307;DHT22;3694;48.732;9.248;2022-09-02T16:19:41;20.90;57.80
7307;DHT22;3694;48.732;9.248;2022-09-02T16:22:06;20.80;57.90
7307;DHT22;3694;48.732;9.248;2022-09-02T16:24:32;20.90;57.90
7307;DHT22;3694;48.732;9.248;2022-09-02T16:26:57;20.90;58.20
7307;DHT22;3694;48.732;9.248;2022-09-02T16:29:23;20.80;59.30
7307;DHT22;3694;48.732;9.248;2022-09-02T16:31:52;20.70;59.40
7307;DHT22;3694;48.732;9.248;2022-09-02T16:34:18;20.60;58.80
7307;DHT22;3694;48.732;9.248;2022-09-02T16:36:46;20.50;58.50
7307;DHT22;3694;48.732;9.248;2022-09-02T16:39:13;20.40;59.40
7307;DHT22;3694;48.732;9.248;2022-09-02T16:41:41;20.40;59.20
7307;DHT22;3694;48.732;9.248;2022-09-02T16:44:11;20.40;58.60
7307;DHT22;3694;48.732;9.248;2022-09-02T16:46:37;20.40;58.40
7307;DHT22;3694;48.732;9.248;2022-09-02T16:49:07;20.30;58.60
7307;DHT22;3694;48.732;9.248;2022-09-02T16:51:33;20.30;59.30
7307;DHT22;3694;48.732;9.248;2022-09-02T16:54:01;20.20;59.80
7307;DHT22;3694;48.732;9.248;2022-09-02T16:56:28;20.40;59.90
7307;DHT22;3694;48.732;9.248;2022-09-02T16:58:55;20.30;59.60
7307;DHT22;3694;48.732;9.248;2022-09-02T17:01:21;20.20;60.40
7307;DHT22;3694;48.732;9.248;2022-09-02T17:03:47;20.20;59.70
7307;DHT22;3694;48.732;9.248;2022-09-02T17:06:14;20.30;60.00
7307;DHT22;3694;48.732;9.248;2022-09-02T17:08:40;20.10;59.70
7307;DHT22;3694;48.732;9.248;2022-09-02T17:11:19;20.10;60.70
7307;DHT22;3694;48.732;9.248;2022-09-02T17:13:46;20.00;60.00
7307;DHT22;3694;48.732;9.248;2022-09-02T17:16:12;20.00;60.30
7307;DHT22;3694;48.732;9.248;2022-09-02T17:18:38;19.90;60.40
7307;DHT22;3694;48.732;9.248;2022-09-02T17:21:14;19.80;61.40
7307;DHT22;3694;48.732;9.248;2022-09-02T17:23:40;19.60;60.90
7307;DHT22;3694;48.732;9.248;2022-09-02T17:26:06;19.60;60.70
7307;DHT22;3694;48.732;9.248;2022-09-02T17:28:32;19.40;61.40
7307;DHT22;3694;48.732;9.248;2022-09-02T17:30:58;19.30;62.20
7307;DHT22;3694;48.732;9.248;2022-09-02T17:33:24;19.10;62.20
7307;DHT22;3694;48.732;9.248;2022-09-02T17:35:56;19.00;62.60
7307;DHT22;3694;48.732;9.248;2022-09-02T17:38:21;18.90;62.00
7307;DHT22;3694;48.732;9.248;2022-09-02T17:40:47;18.80;61.30
7307;DHT22;3694;48.732;9.248;2022-09-02T17:43:31;18.80;62.30
7307;DHT22;3694;48.732;9.248;2022-09-02T17:46:07;18.70;62.40
7307;DHT22;3694;48.732;9.248;2022-09-02T17:48:33;18.60;61.70
7307;DHT22;3694;48.732;9.248;2022-09-02T17:50:59;18.50;62.10
7307;DHT22;3694;48.732;9.248;2022-09-02T17:53:25;18.30;62.20